Airfield :
LOGIN :

Register | Disclaimer

   EN    FR    IT 

 










Legend :    VFR   Marginal VFR   IFR   Intensive IFR   Very Intensive IFR
Visi :
Ceiling :
>= 8 km
>= 3000ft
5 to 8 km
1000 to 3000 ft
1500m to 5 km
500 to 1000 ft
800 to 1500m
200 to 500 ft
< 800m
< 200 ft
Symbols :   Thunderstorms  Fog  Heavy snow  Heavy precipitations  Wind > 20 kt
SIGMETs :     Misc.  Thunderstorms  Icing  Turbulence  Mountain Waves  Volcanic Ashes






- Airport Elevation : 278 ft
- IATA code : RJK


LDRI - Rijeka

CURRENT METAR :
  • 202130Z VRB03KT 9999 FEW040 24/17 Q1009

EXPIRED METARs :
  • 202100Z VRB04KT 9999 FEW040 24/17 Q1009
  • 202030Z VRB05KT 9999 FEW040 23/17 Q1009
  • 202000Z VRB04G16KT 9999 FEW040 24/17 Q1009
  • 201930Z 34007KT 9999 FEW040 24/17 Q1009
  • 201900Z VRB04KT 9999 FEW040 24/17 Q1009
  • 201830Z 04007KT 290V100 9999 FEW040 25/17 Q1009
  • 201800Z 03006KT 360V060 9999 FEW035 25/17 Q1009
  • 201730Z 02007KT 340V060 9999 FEW035 26/17 Q1009
  • 201700Z 05009KT 360V090 CAVOK 26/17 Q1008

TAF TAF LDRI
Valid from the 20 at 18:00 until the 21 at 18:00 UTC


201725Z 2018/2118 05007KT 9999 SCT030 TX29/2113Z TN21/2104Z
PROB30
TEMPO 2110/2116 32007KT



MET'MAP, your aeronautical weather chart ! - Copyright ORBIFLY December 2007 - Disclaimer

ORBIFLY MET'MAP TEAM :

Programming & Development : Alexandra Zaïnal
Original concept : Baudouin d'Aumeries
Technical & hardware support : Manuel Goepfert
Assistance : Marc-Olivier Méhu




SOURCES & CREDITS :

   NOAA